createdAt,value
2023-04-15T00:02:41.313Z,99340.84
2023-04-15T00:07:43.522Z,99334.31
2023-04-15T00:12:45.741Z,99356.56
2023-04-15T00:17:50.197Z,99356.56
2023-04-15T00:22:52.363Z,99354.94
2023-04-15T00:27:54.430Z,99347.38
2023-04-15T00:32:56.547Z,99359.34
2023-04-15T00:37:59.811Z,99342.12
2023-04-15T00:43:02.235Z,99337.16
2023-04-15T00:48:05.755Z,99346.37
2023-04-15T00:53:07.810Z,99352.00
2023-04-15T00:58:09.919Z,99347.66
2023-04-15T01:03:12.124Z,99325.09
2023-04-15T01:08:14.925Z,99325.56
2023-04-15T01:13:17.164Z,99326.72
2023-04-15T01:18:19.897Z,99330.87
2023-04-15T01:23:23.233Z,99331.37
2023-04-15T01:28:25.963Z,99318.34
2023-04-15T01:33:28.033Z,99315.22
2023-04-15T01:38:30.159Z,99335.00
2023-04-15T01:43:32.475Z,99331.37
2023-04-15T01:48:34.649Z,99343.59
2023-04-15T01:53:37.380Z,99333.62
2023-04-15T01:58:40.408Z,99324.25
2023-04-15T02:03:42.848Z,99331.78
2023-04-15T02:08:45.258Z,99343.03
2023-04-15T02:13:47.636Z,99332.09
2023-04-15T02:18:49.713Z,99328.00
2023-04-15T02:23:54.019Z,99339.75
2023-04-15T02:28:56.280Z,99324.59
2023-04-15T02:33:58.394Z,99320.25
2023-04-15T02:39:01.145Z,99330.13
2023-04-15T02:44:03.495Z,99364.81
2023-04-15T02:49:05.737Z,99354.03
2023-04-15T02:54:08.776Z,99342.56
2023-04-15T02:59:12.309Z,99340.41
2023-04-15T03:04:14.619Z,99341.44
2023-04-15T03:09:16.858Z,99345.91
2023-04-15T03:14:18.931Z,99349.91
2023-04-15T03:19:21.059Z,99341.75
2023-04-15T03:24:23.230Z,99338.00
2023-04-15T03:29:25.357Z,99339.91
2023-04-15T03:34:27.462Z,99336.06
2023-04-15T03:39:29.538Z,99323.91
2023-04-15T03:44:31.889Z,99341.59
2023-04-15T03:49:33.952Z,99337.44
2023-04-15T03:54:36.256Z,99353.22
2023-04-15T03:59:38.308Z,99331.88
2023-04-15T04:04:40.739Z,99355.50
2023-04-15T04:09:42.820Z,99341.22
2023-04-15T04:14:44.896Z,99319.91
2023-04-15T04:19:46.972Z,99337.84
2023-04-15T04:24:49.020Z,99330.22
2023-04-15T04:29:51.108Z,99344.41
2023-04-15T04:34:53.222Z,99331.19
2023-04-15T04:39:55.509Z,99334.50
2023-04-15T04:44:57.605Z,99335.63
2023-04-15T04:49:59.665Z,99318.06
2023-04-15T04:55:01.791Z,99333.91
2023-04-15T05:00:05.055Z,99335.16
2023-04-15T05:05:07.873Z,99332.31
2023-04-15T05:10:10.327Z,99340.31
2023-04-15T05:15:12.391Z,99335.56
2023-04-15T05:20:14.530Z,99355.72
2023-04-15T05:25:16.981Z,99330.91
2023-04-15T05:30:19.103Z,99333.22
2023-04-15T05:35:21.568Z,99356.84
2023-04-15T05:40:24.371Z,99352.84
2023-04-15T05:45:26.413Z,99346.63
2023-04-15T05:50:28.437Z,99337.19
2023-04-15T05:55:31.224Z,99360.19
2023-04-15T06:00:33.811Z,99354.50
2023-04-15T06:05:35.928Z,99366.97
2023-04-15T06:10:38.018Z,99371.72
2023-04-15T06:15:40.089Z,99378.78
2023-04-15T06:20:42.459Z,99377.19
2023-04-15T06:25:44.575Z,99371.53
2023-04-15T06:30:46.703Z,99392.19
2023-04-15T06:35:49.707Z,99397.88
2023-04-15T06:40:51.747Z,99390.03
2023-04-15T06:45:53.898Z,99399.03
2023-04-15T06:50:56.365Z,99403.38
2023-04-15T06:55:58.389Z,99411.22
2023-04-15T07:01:00.589Z,99410.69
2023-04-15T07:06:06.493Z,99396.06
2023-04-15T07:11:08.849Z,99400.94
2023-04-15T07:16:10.956Z,99411.25
2023-04-15T07:21:13.057Z,99399.81
2023-04-15T07:26:15.237Z,99418.50
2023-04-15T07:31:17.728Z,99403.28
2023-04-15T07:36:19.912Z,99420.38
2023-04-15T07:41:22.554Z,99425.62
2023-04-15T07:46:24.822Z,99417.41
2023-04-15T07:51:26.927Z,99420.91
2023-04-15T07:56:28.958Z,99426.25
2023-04-15T08:01:31.565Z,99404.25
2023-04-15T08:06:34.104Z,99420.44
2023-04-15T08:11:36.635Z,99421.37
2023-04-15T08:16:38.849Z,99430.88
2023-04-15T08:21:41.121Z,99444.00
2023-04-15T08:26:43.303Z,99424.25
2023-04-15T08:31:45.656Z,99421.97
2023-04-15T08:36:47.903Z,99433.44
2023-04-15T08:41:49.963Z,99442.91
2023-04-15T08:46:54.693Z,99445.41
2023-04-15T08:51:59.390Z,99429.78
2023-04-15T08:57:02.551Z,99442.78
2023-04-15T09:02:04.755Z,99435.28
2023-04-15T09:07:06.987Z,99442.13
2023-04-15T09:12:10.560Z,99454.13
2023-04-15T09:17:12.676Z,99442.00
2023-04-15T09:22:15.484Z,99437.34
2023-04-15T09:27:17.538Z,99438.81
2023-04-15T09:32:21.282Z,99451.34
2023-04-15T09:37:36.504Z,99429.16
2023-04-15T09:42:55.104Z,99431.63
2023-04-15T09:48:15.657Z,99433.84
2023-04-15T09:53:20.209Z,99443.84
2023-04-15T09:58:24.558Z,99426.81
2023-04-15T10:03:29.083Z,99443.78
2023-04-15T10:08:34.748Z,99452.13
2023-04-15T10:13:38.253Z,99451.34
2023-04-15T10:18:45.384Z,99448.94
2023-04-15T10:23:48.193Z,99447.03
2023-04-15T10:28:51.500Z,99464.75
2023-04-15T10:33:54.006Z,99460.25
2023-04-15T10:38:56.062Z,99451.13
2023-04-15T10:44:04.099Z,99463.75
2023-04-15T10:49:15.415Z,99463.75
2023-04-15T10:54:32.597Z,99459.87
2023-04-15T10:59:39.457Z,99494.91
2023-04-15T11:04:53.754Z,99482.06
2023-04-15T11:09:56.553Z,99482.72
2023-04-15T11:14:58.677Z,99479.81
2023-04-15T11:20:01.205Z,99506.53
2023-04-15T11:25:04.567Z,99504.87
2023-04-15T11:30:23.321Z,99493.47
2023-04-15T11:35:25.697Z,99493.78
2023-04-15T11:40:31.465Z,99489.94
2023-04-15T11:45:33.869Z,99492.63
2023-04-15T11:50:37.283Z,99487.00
2023-04-15T11:55:48.438Z,99498.69
2023-04-15T12:00:55.601Z,99502.19
2023-04-15T12:06:17.971Z,99496.72
2023-04-15T12:11:20.962Z,99514.06
2023-04-15T12:16:24.398Z,99516.88
2023-04-15T12:21:29.255Z,99496.13
2023-04-15T12:26:59.618Z,99500.47
2023-04-15T12:32:15.879Z,99514.06
2023-04-15T12:37:18.438Z,99497.94
2023-04-15T12:42:20.647Z,99506.59
2023-04-15T12:47:22.765Z,99509.59
2023-04-15T12:52:25.145Z,99511.63
2023-04-15T12:57:27.657Z,99517.56
2023-04-15T13:02:29.866Z,99522.16
2023-04-15T13:07:32.091Z,99529.97
2023-04-15T13:12:36.815Z,99525.47
2023-04-15T13:17:39.062Z,99520.94
2023-04-15T13:22:41.689Z,99527.06
2023-04-15T13:27:43.931Z,99533.03
2023-04-15T13:32:46.416Z,99527.19
2023-04-15T13:37:49.334Z,99535.03
2023-04-15T13:42:52.166Z,99534.16
2023-04-15T13:47:56.181Z,99535.34
2023-04-15T13:52:58.331Z,99535.44
2023-04-15T13:58:00.429Z,99547.44
2023-04-15T14:03:02.753Z,99556.78
2023-04-15T14:08:05.087Z,99555.81
2023-04-15T14:13:07.149Z,99554.88
2023-04-15T14:18:09.200Z,99561.88
2023-04-15T14:23:11.270Z,99560.09
2023-04-15T14:28:13.531Z,99569.16
2023-04-15T14:33:15.708Z,99570.59
2023-04-15T14:38:17.796Z,99559.31
2023-04-15T14:43:21.091Z,99577.31
2023-04-15T14:48:23.329Z,99575.72
2023-04-15T14:53:25.433Z,99576.56
2023-04-15T14:58:27.519Z,99585.72
2023-04-15T15:03:29.830Z,99577.00
2023-04-15T15:08:32.061Z,99571.00
2023-04-15T15:13:34.111Z,99588.87
2023-04-15T15:18:36.444Z,99594.22
2023-04-15T15:23:38.568Z,99589.06
2023-04-15T15:28:40.983Z,99606.22
2023-04-15T15:33:43.367Z,99610.63
2023-04-15T15:38:45.773Z,99613.06
2023-04-15T15:43:47.836Z,99619.63
2023-04-15T15:48:50.006Z,99631.31
2023-04-15T15:53:52.127Z,99641.38
2023-04-15T15:58:54.213Z,99627.56
2023-04-15T16:03:56.310Z,99636.28
2023-04-15T16:08:58.516Z,99650.66
2023-04-15T16:14:00.543Z,99656.38
2023-04-15T16:19:02.759Z,99661.84
2023-04-15T16:24:05.268Z,99656.69
2023-04-15T16:29:07.742Z,99652.91
2023-04-15T16:34:10.315Z,99670.81
2023-04-15T16:39:12.650Z,99667.00
2023-04-15T16:44:14.940Z,99660.78
2023-04-15T16:49:17.028Z,99661.06
2023-04-15T16:54:19.155Z,99684.66
2023-04-15T16:59:21.245Z,99689.81
2023-04-15T17:04:23.432Z,99695.50
2023-04-15T17:09:25.615Z,99697.94
2023-04-15T17:14:28.949Z,99716.94
2023-04-15T17:19:31.165Z,99707.69
2023-04-15T17:24:33.330Z,99705.75
2023-04-15T17:29:35.410Z,99739.12
2023-04-15T17:34:50.206Z,99729.81
2023-04-15T17:39:53.371Z,99745.28
2023-04-15T17:44:55.488Z,99741.97
2023-04-15T17:49:57.642Z,99755.81
2023-04-15T17:54:59.978Z,99761.75
2023-04-15T18:00:02.103Z,99754.53
2023-04-15T18:05:04.677Z,99760.00
2023-04-15T18:10:08.352Z,99776.25
2023-04-15T18:15:11.714Z,99768.34
2023-04-15T18:20:13.980Z,99772.41
2023-04-15T18:25:16.476Z,99781.34
2023-04-15T18:30:18.697Z,99798.44
2023-04-15T18:35:20.902Z,99814.03
2023-04-15T18:40:22.981Z,99821.00
2023-04-15T18:45:25.414Z,99830.06
2023-04-15T18:50:27.580Z,99839.19
2023-04-15T18:55:29.749Z,99848.66
2023-04-15T19:00:31.874Z,99839.88
2023-04-15T19:05:34.056Z,99864.28
2023-04-15T19:10:36.210Z,99870.72
2023-04-15T19:15:38.297Z,99864.13
2023-04-15T19:20:40.582Z,99876.47
2023-04-15T19:25:42.736Z,99878.13
2023-04-15T19:30:44.870Z,99891.84
2023-04-15T19:35:49.977Z,99900.59
2023-04-15T19:40:52.187Z,99893.53
2023-04-15T19:45:54.888Z,99906.12
2023-04-15T19:50:57.648Z,99905.25
2023-04-15T19:55:59.858Z,99921.50
2023-04-15T20:01:02.333Z,99921.78
2023-04-15T20:06:04.440Z,99914.63
2023-04-15T20:11:06.813Z,99927.72
2023-04-15T20:16:09.089Z,99938.25
2023-04-15T20:21:11.332Z,99930.97
2023-04-15T20:26:13.456Z,99938.25
